• Join FlightAware (Why Join?)
  • Login
  • US Flag 
06:30AM EST


 

Airport Tracker/Info


-or-


 

Live Flight TrackerFlight Track Log ✈ WIG7117 ✈ 19-Nov-2013 ✈ KALB - KSYR

Flight Track Log - Related Links

Times and Time Zones

All times are in EST time to prevent confusion due to time zone crossing. See the WIG7117 flight status page for this flight to view local times or setup timezone preferences in your user account.

Time Position Orientation Groundspeed Altitude Reporting Facility
EST Latitude Longitude Course Direction KTS MPH feet Rate Location/Type
09:58PM 42.7553 -73.8044 305° West 87 100 1,000  Level Boston Center
09:58PM 42.7664 -73.8258 305° West 108 124 1,600 780 Climbing Boston Center
09:59PM 42.7692 -73.8444 281° West 108 124 2,000 960 Climbing Boston Center
09:59PM 42.7736 -73.8689 284° West 126 145 2,600 960 Climbing Boston Center
10:00PM 42.7775 -73.8903 284° West 116 133 3,000 720 Climbing Boston Center
10:00PM 42.7806 -73.9122 281° West 119 137 3,400 840 Climbing Boston Center
10:01PM 42.7842 -73.9344 282° West 118 136 3,900 840 Climbing Boston Center
10:01PM 42.7886 -73.9617 283° West 122 140 4,400 840 Climbing Boston Center
10:02PM 42.7914 -73.9806 281° West 123 142 4,800 960 Climbing Boston Center
10:02PM 42.7947 -74.0103 279° West 123 142 5,400 960 Climbing Boston Center
10:03PM 42.7989 -74.0253 291° West 122 140 5,800 900 Climbing Boston Center
10:03PM 42.8036 -74.0542 283° West 121 139 6,300 840 Climbing Boston Center
10:04PM 42.8058 -74.0697 281° West 120 138 6,700 900 Climbing Boston Center
10:04PM 42.8108 -74.0975 284° West 119 137 7,200 900 Climbing Boston Center
10:05PM 42.8125 -74.1131 278° West 119 137 7,600 840 Climbing Boston Center
10:05PM 42.8178 -74.1408 285° West 117 135 8,100 660 Climbing Boston Center
10:06PM 42.8186 -74.1478 279° West 117 135 8,100 -240 Level Boston Center
10:06PM 42.8203 -74.1578 283° West 121 139 8,000 -300 Descending Boston Center
10:06PM 42.8222 -74.1661 288° West 121 139 8,000 60 Level Boston Center
10:07PM 42.8297 -74.2081 284° West 126 145 8,100 60 Climbing Boston Center
10:07PM 42.8303 -74.2117 282° West 130 150 8,100 -120 Level Boston Center
10:08PM 42.8372 -74.2564 282° West 130 150 8,000 -120 Descending Boston Center
10:08PM 42.8372 -74.2628 270° West 131 151 8,000 -120 Level Boston Center
10:09PM 42.8442 -74.3069 282° West 135 155 7,900 -120 Descending Boston Center
10:09PM 42.8447 -74.3111 280° West 137 158 7,900  Level Boston Center
10:10PM 42.8531 -74.3558 284° West 133 153 7,900  Level Boston Center
10:10PM 42.8550 -74.3692 281° West 132 152 7,900  Level Boston Center
10:11PM 42.8594 -74.4033 280° West 129 148 7,900  Level Boston Center
10:11PM 42.8606 -74.4169 276° West 129 148 7,900  Level Boston Center
10:12PM 42.8681 -74.4528 286° West 133 153 7,900  Level Boston Center
10:12PM 42.8700 -74.4658 281° West 133 153 7,900  Level Boston Center
10:13PM 42.8767 -74.5072 282° West 138 159 7,900  Level Boston Center
10:13PM 42.8772 -74.5144 276° West 136 157 7,900  Level Boston Center
10:14PM 42.8850 -74.5575 284° West 138 159 7,900  Level Boston Center
10:14PM 42.8842 -74.5656 262° West 139 160 7,900  Level Boston Center
10:15PM 42.8908 -74.6094 282° West 138 159 7,900  Level Boston Center
10:15PM 42.8922 -74.6231 278° West 138 159 7,900  Level Boston Center
10:16PM 42.8997 -74.6714 282° West 135 155 7,900  Level Boston Center
10:17PM 42.9069 -74.7200 281° West 134 154 8,000  Climbing Boston Center
10:18PM 42.9139 -74.7592 284° West 135 155 7,900 -120 Descending Boston Center
10:18PM 42.9156 -74.7744 278° West 135 155 7,900  Level Boston Center
10:19PM 42.9219 -74.8075 285° West 133 153 7,900  Level Boston Center
10:19PM 42.9247 -74.8236 283° West 133 153 7,900  Level Boston Center
10:20PM 42.9294 -74.8564 281° West 134 154 7,900  Level Boston Center
10:20PM 42.9317 -74.8750 279° West 129 148 7,900  Level Boston Center
10:21PM 42.9350 -74.9039 279° West 130 150 7,900  Level Boston Center
10:21PM 42.9367 -74.9231 277° West 128 147 7,900  Level Boston Center
10:22PM 42.9408 -74.9506 282° West 128 147 7,900 60 Level Boston Center
10:22PM 42.9439 -74.9714 281° West 129 148 8,000  Climbing Boston Center
10:23PM 42.9486 -74.9989 283° West 128 147 7,900 -120 Descending Boston Center
10:23PM 42.9517 -75.0172 283° West 130 150 7,900  Level Boston Center
10:24PM 42.9583 -75.0472 287° West 130 150 7,900  Level Boston Center
10:24PM 42.9608 -75.0664 280° West 130 150 7,900  Level Boston Center
10:25PM 42.9650 -75.0953 281° West 130 150 7,900 60 Level Boston Center
10:25PM 42.9664 -75.1117 277° West 129 148 8,000  Climbing Boston Center
10:26PM 42.9719 -75.1439 283° West 130 150 7,900 -120 Descending Boston Center
10:26PM 42.9733 -75.1603 277° West 133 153 7,900  Level Boston Center
10:27PM 42.9797 -75.1931 285° West 132 152 7,900  Level Boston Center
10:27PM 42.9836 -75.2156 283° West 132 152 7,900  Level Boston Center
10:28PM 42.9872 -75.2414 281° West 131 151 7,900 60 Level Boston Center
10:28PM 42.9875 -75.2575 271° West 130 150 8,000  Climbing Boston Center
10:29PM 42.9933 -75.2897 284° West 130 150 7,900  Descending Boston Center
10:29PM 42.9947 -75.3061 277° West 130 150 8,000  Climbing Boston Center
10:30PM 43.0003 -75.3397 283° West 131 151 7,900 -120 Descending Boston Center
10:30PM 43.0033 -75.3581 283° West 133 153 7,900  Level Boston Center
10:31PM 43.0075 -75.3886 281° West 132 152 7,900 60 Level Boston Center
10:31PM 43.0103 -75.4069 282° West 131 151 8,000 -120 Climbing Boston Center
10:32PM 43.0172 -75.4556 281° West 131 151 7,800 -540 Descending Boston Center
10:33PM 43.0236 -75.4886 285° West 133 153 7,100 -1,020 Descending Boston Center
10:33PM 43.0269 -75.5136 280° West 154 177 6,800 -900 Descending Boston Center
10:34PM 43.0319 -75.5489 281° West 148 170 6,200 -1,020 Descending Boston Center
10:34PM 43.0331 -75.5681 275° West 166 191 5,900 -960 Descending Boston Center
10:35PM 43.0411 -75.6094 285° West 157 181 5,200 -900 Descending Boston Center
10:35PM 43.0428 -75.6261 278° West 160 184 5,000 -840 Descending Boston Center
10:36PM 43.0511 -75.6792 282° West 157 181 4,400 -660 Descending Boston Center
10:36PM 43.0522 -75.6844 286° West 152 175 4,400 -660 Level Boston Center
10:37PM 43.0628 -75.7372 285° West 145 167 3,700 -720 Descending Boston Center
10:38PM 43.0733 -75.7867 286° West 148 170 3,100 -600 Descending Boston Center
10:38PM 43.0728 -75.7928 263° West 149 171 3,100 -480 Level Boston Center
10:39PM 43.0822 -75.8511 283° West 148 170 2,600 -540 Descending Boston Center
10:40PM 43.0903 -75.8994 283° West 151 174 2,100 -540 Descending Boston Center
10:40PM 43.0917 -75.9094 281° West 156 180 2,100 -120 Level Boston Center
10:41PM 43.1019 -75.9581 286° West 154 177 2,000 -120 Descending Boston Center
10:41PM 43.1011 -75.9678 263° West 162 186 2,000 -600 Level Boston Center
10:42PM 43.1108 -76.0183 285° West 158 182 1,400 -720 Descending Boston Center
10:42PM 43.1103 -76.0289 266° West 163 188 1,300 -900 Descending Boston Center
10:43PM 43.1125 -76.0817 273° West 163 188 500 -900 Descending Boston Center
10:45PM 43.1000 -76.1000 270° West  Level FlightAware Approximate
10:52PM 43.1112 -76.1063 270° West  Level Estimated
10:53PM 43.1112 -76.1063 270° West  Level Estimated
10:54PM 43.1112 -76.1063 270° West  Level Estimated
10:55PM 43.1112 -76.1063 270° West  Level Estimated
10:56PM 43.1112 -76.1063 270° West  Level Estimated
10:57PM 43.1112 -76.1063 270° West  Level Estimated